»·PEaware :: N511V KBFL-KMHV

N511V :: KBFL-KMHV

FLIGHT INFORMATION

Flight Status: Arrived
Operator: Privately registered:
United States
More flights under this callsign
Pilot: Nasser A. (34038)
Aircraft: CESSNA 172 SKYHAWK
(C172)
More flights by this aircraft type
Origin: KBFL Meadows
United States
Destination: KMHV Mojave
United States
More flights between these airports :: More routes between these airports
Route: GPS
File this flight plan on PilotEdge
Remarks:
Altitude:
(Current/Filed)
7,500ft
Speed:
(Current/Filed)
100kts
Departed: 13-Nov-21 04:52 PM
Arrived: 13-Nov-21 05:29 PM
Distance/Time
Traveled:
1nm/0:37
Distance/Time
To Go:
Arrived

Flight Plot

Page will automatically refresh every two minutes.

Flight plan parsing failed; only flown route is shown


Map Options




Map Legend


Flown Route
Filed Route
Departure Airport
Arrival Airport
Navaid (VOR, NDB)
Fix

Horizontal Profiles

Position Reports

Time Latitude Longitude Heading Altitude Ground
Speed
13-Nov-21 16:21 35.428717 -119.045456 63 481ft 0kts
13-Nov-21 16:22 35.428717 -119.045456 63 481ft 0kts
13-Nov-21 16:23 35.428717 -119.045456 63 481ft 0kts
13-Nov-21 16:24 35.428717 -119.045456 63 481ft 0kts
13-Nov-21 16:25 35.428717 -119.045456 63 481ft 0kts
13-Nov-21 16:26 35.428717 -119.045456 63 481ft 0kts
13-Nov-21 16:27 35.428717 -119.045456 63 481ft 0kts
13-Nov-21 16:28 35.428717 -119.045456 63 481ft 0kts
13-Nov-21 16:29 35.428717 -119.045456 63 481ft 0kts
13-Nov-21 16:30 35.428717 -119.045456 63 481ft 0kts
13-Nov-21 16:31 35.428717 -119.045456 63 481ft 0kts
13-Nov-21 16:32 35.428717 -119.045456 63 481ft 0kts
13-Nov-21 16:33 35.428717 -119.045456 63 481ft 0kts
13-Nov-21 16:34 35.428717 -119.045456 63 481ft 0kts
13-Nov-21 16:35 35.428717 -119.045456 63 481ft 0kts
13-Nov-21 16:36 35.428717 -119.045456 63 481ft 0kts
13-Nov-21 16:37 35.428717 -119.045456 63 481ft 0kts
13-Nov-21 16:38 35.428717 -119.045456 63 481ft 0kts
13-Nov-21 16:39 35.428717 -119.045456 63 481ft 0kts
13-Nov-21 16:40 35.428717 -119.045456 63 481ft 0kts
13-Nov-21 16:41 35.428717 -119.045456 63 481ft 0kts
13-Nov-21 16:42 35.428717 -119.045456 63 481ft 0kts
13-Nov-21 16:43 35.428717 -119.045456 63 481ft 0kts
13-Nov-21 16:44 35.428717 -119.045456 63 481ft 0kts
13-Nov-21 16:45 35.428717 -119.045456 63 481ft 0kts
13-Nov-21 16:46 35.428717 -119.045456 63 481ft 0kts
13-Nov-21 16:47 35.428087 -119.045618 230 479ft 6kts
13-Nov-21 16:48 35.425809 -119.044676 220 471ft 10kts
13-Nov-21 16:49 35.425712 -119.044797 231 472ft 0kts
13-Nov-21 16:50 35.425573 -119.045830 280 474ft 22kts
13-Nov-21 16:51 35.440579 -119.064315 315 710ft 102kts
13-Nov-21 16:52 35.458251 -119.087419 324 1561ft 91kts
13-Nov-21 16:53 35.481227 -119.083648 38 2335ft 92kts
13-Nov-21 16:54 35.479671 -119.051649 122 2895ft 108kts
13-Nov-21 16:55 35.458286 -119.025704 134 3457ft 108kts
13-Nov-21 16:56 35.433358 -119.005848 164 3961ft 108kts
13-Nov-21 16:57 35.408237 -118.987408 135 4441ft 106kts
13-Nov-21 16:58 35.391834 -118.957448 118 4889ft 106kts
13-Nov-21 16:59 35.378017 -118.925244 115 5301ft 106kts
13-Nov-21 17:00 35.365159 -118.892682 125 5660ft 107kts
13-Nov-21 17:01 35.351680 -118.860007 116 5985ft 108kts
13-Nov-21 17:02 35.339261 -118.826635 112 6270ft 108kts
13-Nov-21 17:03 35.325546 -118.793691 118 6507ft 108kts
13-Nov-21 17:04 35.311739 -118.760850 117 6728ft 108kts
13-Nov-21 17:05 35.297998 -118.728104 123 6919ft 108kts
13-Nov-21 17:06 35.281304 -118.697223 128 7076ft 108kts
13-Nov-21 17:07 35.269440 -118.663036 115 7093ft 113kts
13-Nov-21 17:08 35.254955 -118.628366 118 7097ft 114kts
13-Nov-21 17:09 35.240467 -118.593580 119 7103ft 115kts
13-Nov-21 17:10 35.225945 -118.558756 119 7088ft 114kts
13-Nov-21 17:11 35.211370 -118.523859 119 7099ft 115kts
13-Nov-21 17:12 35.196794 -118.488785 119 7092ft 115kts
13-Nov-21 17:13 35.182132 -118.453836 118 7093ft 115kts
13-Nov-21 17:14 35.167464 -118.418904 118 7087ft 115kts
13-Nov-21 17:15 35.152953 -118.384301 117 7105ft 115kts
13-Nov-21 17:16 35.138866 -118.351064 117 6413ft 99kts
13-Nov-21 17:17 35.126159 -118.321068 116 5603ft 92kts
13-Nov-21 17:18 35.115031 -118.294740 115 6216ft 81kts
13-Nov-21 17:19 35.105625 -118.270953 95 5938ft 76kts
13-Nov-21 17:20 35.104062 -118.239847 94 5637ft 109kts
13-Nov-21 17:21 35.102337 -118.202872 93 5082ft 108kts
13-Nov-21 17:22 35.092368 -118.168724 125 4502ft 109kts
13-Nov-21 17:23 35.074372 -118.139309 122 3861ft 112kts
13-Nov-21 17:24 35.055002 -118.114319 139 3532ft 97kts
13-Nov-21 17:25 35.051523 -118.093388 339 3171ft 108kts
13-Nov-21 17:26 35.059115 -118.125655 269 3057ft 110kts
13-Nov-21 17:27 35.059154 -118.154378 271 2757ft 49kts
13-Nov-21 17:28 35.058583 -118.157722 180 2766ft 0kts
13-Nov-21 17:29 35.057465 -118.162440 234 2777ft 33kts
13-Nov-21 17:38 35.429111 -119.046453 135 481ft 0kts
13-Nov-21 17:39 35.429111 -119.046453 135 481ft 0kts
13-Nov-21 17:40 35.429111 -119.046453 135 481ft 0kts
13-Nov-21 17:41 35.429111 -119.046453 135 481ft 0kts
13-Nov-21 17:42 35.429111 -119.046453 135 481ft 0kts

Navigation Log

Ident Type
Flight plan parsing failed, navigation log unavailable